createdAt,value
2019-04-27T00:30:53.243Z,62.30
2019-04-27T00:46:00.125Z,63.00
2019-04-27T01:00:59.895Z,63.41
2019-04-27T01:15:54.192Z,63.73
2019-04-27T01:45:49.843Z,64.82
2019-04-27T02:00:54.505Z,65.27
2019-04-27T02:15:49.847Z,65.69
2019-04-27T02:45:55.111Z,66.65
2019-04-27T03:00:53.017Z,67.00
2019-04-27T03:16:00.451Z,67.18
2019-04-27T03:30:52.097Z,67.48
2019-04-27T03:45:52.025Z,67.38
2019-04-27T04:45:59.483Z,54.61
2019-04-27T05:00:50.333Z,54.44
2019-04-27T05:15:55.260Z,53.51
2019-04-27T05:30:49.381Z,49.52
2019-04-27T06:00:49.659Z,43.17
2019-04-27T06:15:59.306Z,40.91
2019-04-27T06:30:49.296Z,39.20
2019-04-27T06:45:49.012Z,38.34
2019-04-27T07:00:49.694Z,38.61
2019-04-27T07:15:48.915Z,38.99
2019-04-27T07:30:49.729Z,40.34
2019-04-27T07:45:59.142Z,39.70
2019-04-27T08:00:50.938Z,39.02
2019-04-27T08:15:49.630Z,37.57
2019-04-27T08:45:49.394Z,39.02
2019-04-27T09:00:49.354Z,38.63
2019-04-27T09:15:51.018Z,35.89
2019-04-27T09:30:49.860Z,34.51
2019-04-27T09:45:49.305Z,34.33
2019-04-27T10:00:49.778Z,35.13
2019-04-27T10:15:49.588Z,36.21
2019-04-27T10:30:49.637Z,38.25
2019-04-27T10:45:50.197Z,38.96
2019-04-27T11:00:50.648Z,39.10
2019-04-27T11:15:49.370Z,38.47
2019-04-27T11:30:55.012Z,37.88
2019-04-27T11:45:49.689Z,37.54
2019-04-27T12:15:49.348Z,37.02
2019-04-27T12:30:56.829Z,39.32
2019-04-27T12:45:49.687Z,52.97
2019-04-27T13:00:59.952Z,53.86
2019-04-27T13:15:52.531Z,55.32
2019-04-27T13:30:49.421Z,58.09
2019-04-27T13:45:49.990Z,57.79
2019-04-27T14:00:48.948Z,56.78
2019-04-27T14:15:49.104Z,57.48
2019-04-27T14:30:48.703Z,60.51
2019-04-27T14:45:50.777Z,62.24
2019-04-27T15:00:54.128Z,65.32
2019-04-27T15:30:59.518Z,71.68
2019-04-27T15:45:53.517Z,75.36
2019-04-27T16:00:56.243Z,76.52
2019-04-27T16:30:50.651Z,76.18
2019-04-27T16:45:52.477Z,81.86
2019-04-27T17:00:50.017Z,81.62
2019-04-27T17:30:52.594Z,83.39
2019-04-27T17:45:50.746Z,83.42
2019-04-27T18:00:51.359Z,83.41
2019-04-27T18:15:50.688Z,83.99
2019-04-27T18:30:59.863Z,82.97
2019-04-27T19:00:49.535Z,81.60
2019-04-27T19:15:50.881Z,80.63
2019-04-27T19:45:49.739Z,81.48
2019-04-27T20:15:51.299Z,81.18
2019-04-27T20:30:49.621Z,80.28
2019-04-27T20:45:51.559Z,79.79
2019-04-27T21:00:56.110Z,79.57
2019-04-27T21:15:50.920Z,80.02
2019-04-27T21:30:49.886Z,79.03
2019-04-27T21:45:53.369Z,79.66
2019-04-27T22:15:54.354Z,77.72
2019-04-27T22:30:56.274Z,77.15
2019-04-27T22:45:51.698Z,76.18
2019-04-27T23:15:54.170Z,80.85
2019-04-27T23:30:54.350Z,81.98
